Airfield :
LOGIN :

Register | Disclaimer

   EN    FR    IT 

 










Legend :    VFR   Marginal VFR   IFR   Intensive IFR   Very Intensive IFR
Visi :
Ceiling :
>= 8 km
>= 3000ft
5 to 8 km
1000 to 3000 ft
1500m to 5 km
500 to 1000 ft
800 to 1500m
200 to 500 ft
< 800m
< 200 ft
Symbols :   Thunderstorms  Fog  Heavy snow  Heavy precipitations  Wind > 20 kt
SIGMETs :     Misc.  Thunderstorms  Icing  Turbulence  Mountain Waves  Volcanic Ashes






- Airport Elevation : 1830 ft


EBLB - Butgenbach Elsenborn

CURRENT METAR :
  • 141239Z AUTO 20007KT 9999 DZ OVC006/// 12/11 Q1008 YLO

EXPIRED METARs :
  • 141225Z AUTO 20008KT 5000 DZ OVC008/// 12/11 Q1008 GRN
  • 141155Z AUTO 20009KT 9999 OVC008/// 12/11 Q1008 GRN
  • 141125Z AUTO 20008G19KT 9999 -DZ OVC008/// 12/10 Q1008 GRN
  • 141055Z AUTO 19007KT 9999 OVC007/// 12/10 Q1008 GRN
  • 141025Z AUTO 19009KT 9999 OVC008/// 11/09 Q1009 GRN
  • 140955Z AUTO 20007KT 9999 OVC008/// 11/09 Q1008 GRN
  • 140925Z AUTO 20008KT 9999 OVC008/// 11/09 Q1008 GRN
  • 140855Z AUTO 20009KT 9999 OVC009/// 11/09 Q1008 GRN
  • 140825Z AUTO 19006KT 9999 OVC009/// 11/09 Q1009 GRN

Expired Forecast.



MET'MAP, your aeronautical weather chart ! - Copyright ORBIFLY December 2007 - Disclaimer

ORBIFLY MET'MAP TEAM :

Programming & Development : Alexandra Zaïnal
Original concept : Baudouin d'Aumeries
Technical & hardware support : Manuel Goepfert
Assistance : Marc-Olivier Méhu




SOURCES & CREDITS :

   NOAA